Time;durP1;ratioP1;P1;durP2;ratioP2;P2;SDS_P1;SDS_P2;PMS_P1;PMS_P2;Temp;Humidity;BMP_temperature;BMP_pressure;BME280_temperature;BME280_humidity;BME280_pressure;Samples;Min_cycle;Max_cycle;Signal;HPM_P1;HPM_P2
2022/06/08 00:01:30;;;;;;;2.80;2.60;;;;;;;15.09;100.00;155236.66;5049281;28;20509;-75
2022/06/08 00:03:59;;;;;;;3.43;2.47;;;;;;;15.08;100.00;155235.34;5048618;28;20435;-75
2022/06/08 00:06:27;;;;;;;3.00;2.67;;;;;;;15.09;100.00;155236.66;5050753;28;20462;-76
2022/06/08 00:08:54;;;;;;;2.60;2.10;;;;;;;15.05;100.00;155227.53;5050392;28;20466;-76
2022/06/08 00:11:21;;;;;;;3.07;2.00;;;;;;;15.02;100.00;155219.75;5083601;28;20447;-76
2022/06/08 00:13:48;;;;;;;3.43;2.80;;;;;;;14.99;100.00;155210.63;5057080;28;20832;-76
2022/06/08 00:16:15;;;;;;;3.00;2.70;;;;;;;14.95;100.00;155201.56;5070536;28;20477;-76
2022/06/08 00:18:43;;;;;;;2.33;1.80;;;;;;;14.95;100.00;155201.56;5055065;28;20528;-75
2022/06/08 00:21:10;;;;;;;2.60;2.20;;;;;;;14.96;100.00;155202.81;5076270;28;20528;-75
2022/06/08 00:23:39;;;;;;;2.20;2.00;;;;;;;15.00;100.00;155213.25;5069640;28;20950;-75
2022/06/08 00:26:06;;;;;;;2.53;2.17;;;;;;;14.99;100.00;155210.63;5080858;28;20474;-75
2022/06/08 00:28:33;;;;;;;2.87;2.67;;;;;;;15.03;100.00;155221.03;5067472;28;20460;-75
2022/06/08 00:31:01;;;;;;;3.07;2.07;;;;;;;15.04;100.00;155223.63;5069447;28;20503;-75
2022/06/08 00:33:28;;;;;;;2.80;2.50;;;;;;;15.06;100.00;155228.84;5064453;28;20461;-75
2022/06/08 00:35:55;;;;;;;2.60;2.40;;;;;;;15.05;100.00;155227.53;5049595;28;20932;-75
2022/06/08 00:38:22;;;;;;;2.60;2.40;;;;;;;15.02;100.00;155218.44;5065356;28;20558;-75
2022/06/08 00:40:57;;;;;;;3.17;2.87;;;;;;;15.05;100.00;155226.22;5048983;28;20820;-76
2022/06/08 00:43:25;;;;;;;2.93;2.30;;;;;;;14.98;100.00;155209.38;5032720;28;20841;-75
2022/06/08 00:45:52;;;;;;;2.87;2.57;;;;;;;15.00;100.00;155214.56;5049152;28;20465;-75
2022/06/08 00:48:19;;;;;;;2.43;2.17;;;;;;;14.97;100.00;155205.44;5039097;28;20558;-76
2022/06/08 00:50:49;;;;;;;2.97;2.40;;;;;;;14.94;100.00;155198.94;5060432;28;20455;-76
2022/06/08 00:53:17;;;;;;;2.53;2.33;;;;;;;14.93;100.00;155195.06;5055542;28;20470;-75
2022/06/08 00:55:45;;;;;;;2.60;2.20;;;;;;;14.85;100.00;155174.28;5068884;28;20445;-75
2022/06/08 00:58:16;;;;;;;4.77;2.57;;;;;;;14.86;100.00;155176.84;5052028;28;20434;-75
2022/06/08 01:00:43;;;;;;;3.47;2.40;;;;;;;14.86;100.00;155176.84;5055016;28;20442;-76
2022/06/08 01:03:14;;;;;;;3.50;2.40;;;;;;;14.87;100.00;155179.47;5052012;28;20442;-76
2022/06/08 01:05:48;;;;;;;4.60;2.43;;;;;;;14.86;100.00;155176.84;5051551;28;20435;-75
2022/06/08 01:08:22;;;;;;;2.60;2.40;;;;;;;14.83;100.00;155169.06;5071719;28;20453;-75
2022/06/08 01:10:52;;;;;;;2.53;2.33;;;;;;;14.80;100.00;155162.56;5072587;28;20527;-75
2022/06/08 01:13:22;;;;;;;3.17;2.83;;;;;;;14.78;100.00;155156.06;5055643;28;20523;-75
2022/06/08 01:15:50;;;;;;;3.23;2.80;;;;;;;14.79;100.00;155158.69;5044755;28;20486;-75
2022/06/08 01:18:19;;;;;;;3.93;2.67;;;;;;;14.76;100.00;155152.19;5069015;28;20794;-75
2022/06/08 01:20:49;;;;;;;4.10;2.93;;;;;;;14.79;100.00;155158.69;5088532;28;20487;-75
2022/06/08 01:23:19;;;;;;;4.80;2.53;;;;;;;14.76;100.00;155150.88;5074471;28;20453;-75
2022/06/08 01:25:59;;;;;;;4.80;4.40;;;;;;;14.70;100.00;155136.59;5059808;28;20527;-75
2022/06/08 01:28:33;;;;;;;2.83;2.53;;;;;;;14.67;100.00;155127.53;5071409;28;20442;-75
2022/06/08 01:31:02;;;;;;;2.70;2.50;;;;;;;14.66;100.00;155124.91;5072948;28;20491;-76
2022/06/08 01:33:49;;;;;;;2.60;2.30;;;;;;;14.61;100.00;155114.50;5054757;28;20473;-75
2022/06/08 01:36:29;;;;;;;2.87;2.53;;;;;;;14.64;100.00;155122.28;5070161;28;20453;-75
2022/06/08 01:39:03;;;;;;;2.80;2.50;;;;;;;14.64;100.00;155122.28;5105946;28;20499;-75
2022/06/08 01:41:47;;;;;;;3.50;3.00;;;;;;;14.62;100.00;155117.09;5055410;28;20845;-75
2022/06/08 01:44:21;;;;;;;2.70;2.50;;;;;;;14.59;100.00;155109.31;5051992;28;20474;-75
2022/06/08 01:46:56;;;;;;;4.10;3.00;;;;;;;14.53;100.00;155093.72;5067661;28;20517;-76
2022/06/08 01:49:26;;;;;;;3.77;2.70;;;;;;;14.57;100.00;155102.81;5053275;28;20423;-75
2022/06/08 01:52:24;;;;;;;3.30;3.00;;;;;;;14.51;100.00;155088.53;5071874;28;20431;-76
2022/06/08 01:55:03;;;;;;;3.30;3.00;;;;;;;14.50;100.00;155085.97;5044267;28;20482;-76
2022/06/08 01:57:50;;;;;;;3.63;2.70;;;;;;;14.47;100.00;155078.16;5042369;28;20450;-75
2022/06/08 02:00:20;;;;;;;3.73;3.43;;;;;;;14.48;100.00;155080.72;5052036;28;20469;-75
2022/06/08 02:02:53;;;;;;;3.00;2.70;;;;;;;14.44;100.00;155070.38;5090276;28;20450;-75
2022/06/08 02:05:27;;;;;;;3.60;3.23;;;;;;;14.41;100.00;155062.56;5037660;28;20504;-76
2022/06/08 02:08:00;;;;;;;3.40;2.90;;;;;;;14.38;100.00;155054.75;5069330;28;20478;-75
2022/06/08 02:10:34;;;;;;;5.70;2.50;;;;;;;14.39;100.00;155057.38;5068542;28;20504;-75
2022/06/08 02:13:07;;;;;;;4.13;3.00;;;;;;;14.37;100.00;155050.88;5063247;28;20637;-75
2022/06/08 02:15:40;;;;;;;4.27;3.40;;;;;;;14.35;100.00;155045.72;5066013;28;20550;-76
2022/06/08 02:18:12;;;;;;;3.77;2.67;;;;;;;14.32;100.00;155037.91;5051167;28;20451;-75
2022/06/08 02:20:47;;;;;;;3.27;2.97;;;;;;;14.30;100.00;155033.94;5049592;28;20446;-75
2022/06/08 02:23:18;;;;;;;4.10;3.20;;;;;;;14.21;100.00;155010.59;5086365;28;20466;-75
2022/06/08 02:25:50;;;;;;;3.50;3.20;;;;;;;14.18;100.00;155002.78;5054565;28;20959;-76
2022/06/08 02:28:20;;;;;;;3.90;3.20;;;;;;;14.14;100.00;154992.38;5071361;28;20879;-75
2022/06/08 02:30:51;;;;;;;5.00;3.27;;;;;;;14.09;100.00;154978.09;5054093;28;20792;-75
2022/06/08 02:36:10;;;;;;;3.40;3.00;;;;;;;14.09;100.00;154978.09;5104512;28;20437;-75
2022/06/08 02:38:40;;;;;;;3.20;2.90;;;;;;;14.04;100.00;154966.41;5050175;28;20450;-75
2022/06/08 02:41:10;;;;;;;3.70;2.70;;;;;;;14.03;100.00;154965.13;5067292;28;20441;-75
2022/06/08 02:43:42;;;;;;;4.00;3.00;;;;;;;13.99;100.00;154953.44;5070093;28;20461;-75
2022/06/08 02:46:20;;;;;;;3.03;2.57;;;;;;;13.93;100.00;154939.16;5054862;28;20797;-76
2022/06/08 02:48:48;;;;;;;5.50;2.80;;;;;;;13.91;100.00;154933.97;5071224;28;20914;-75
2022/06/08 02:51:15;;;;;;;3.77;3.10;;;;;;;13.88;100.00;154924.88;5078725;28;20497;-76
2022/06/08 02:53:59;;;;;;;4.03;2.87;;;;;;;13.83;100.00;154911.91;5052461;28;20485;-75
2022/06/08 02:57:00;;;;;;;4.30;3.27;;;;;;;13.77;100.00;154896.31;5082518;28;20438;-75
2022/06/08 02:59:35;;;;;;;2.77;2.30;;;;;;;13.78;100.00;154898.91;5052711;28;20450;-76
2022/06/08 03:02:06;;;;;;;6.07;3.13;;;;;;;13.74;100.00;154889.81;5051872;28;20924;-75
2022/06/08 03:04:38;;;;;;;3.37;3.07;;;;;;;13.73;100.00;154887.25;5070207;28;20467;-75
2022/06/08 03:07:10;;;;;;;4.73;3.07;;;;;;;13.72;100.00;154883.34;5077610;28;20486;-75
2022/06/08 03:09:37;;;;;;;3.50;3.03;;;;;;;13.70;100.00;154878.16;5067199;28;20554;-75
2022/06/08 03:12:11;;;;;;;4.23;3.67;;;;;;;13.60;100.00;154853.50;5073116;28;20504;-75
2022/06/08 03:14:39;;;;;;;2.97;2.67;;;;;;;13.64;100.00;154862.56;5070471;28;20434;-75
2022/06/08 03:17:08;;;;;;;3.30;2.90;;;;;;;13.61;100.00;154856.06;5053610;28;20422;-75
2022/06/08 03:19:36;;;;;;;3.73;3.33;;;;;;;13.61;100.00;154854.81;5068803;28;20507;-75
2022/06/08 03:22:05;;;;;;;5.10;3.93;;;;;;;13.62;100.00;154857.38;5103628;28;20551;-76
2022/06/08 03:24:33;;;;;;;6.30;2.90;;;;;;;13.66;100.00;154867.78;5050257;28;20512;-75
2022/06/08 03:27:02;;;;;;;3.90;3.00;;;;;;;13.65;100.00;154865.19;5058466;28;21025;-75
2022/06/08 03:29:33;;;;;;;3.63;3.23;;;;;;;13.67;100.00;154870.34;5052111;28;20812;-75
2022/06/08 03:32:00;;;;;;;6.67;3.43;;;;;;;13.69;100.00;154875.53;5067431;28;20461;-75
2022/06/08 03:34:27;;;;;;;3.20;2.67;;;;;;;13.65;100.00;154866.50;5062437;28;20434;-75
2022/06/08 03:36:55;;;;;;;3.50;3.20;;;;;;;13.66;100.00;154867.78;5104161;28;20495;-75
2022/06/08 03:39:24;;;;;;;3.50;3.20;;;;;;;13.64;100.00;154863.88;5083841;28;20456;-75
2022/06/08 03:41:54;;;;;;;3.90;3.47;;;;;;;13.65;100.00;154865.19;5068421;28;20770;-75
2022/06/08 03:44:21;;;;;;;3.27;2.87;;;;;;;13.69;100.00;154876.84;5066585;28;20735;-76
2022/06/08 03:46:53;;;;;;;4.47;3.43;;;;;;;13.70;100.00;154879.47;5071356;28;20692;-75
2022/06/08 03:49:24;;;;;;;5.73;3.30;;;;;;;13.70;100.00;154879.47;5035981;28;20541;-75
2022/06/08 03:51:52;;;;;;;4.23;3.33;;;;;;;13.71;100.00;154882.06;5033062;28;20442;-75
2022/06/08 03:54:21;;;;;;;3.60;2.80;;;;;;;13.70;100.00;154879.47;5049762;28;20468;-75
2022/06/08 03:56:50;;;;;;;3.70;3.20;;;;;;;13.72;100.00;154883.34;5053170;28;20445;-75
2022/06/08 03:59:20;;;;;;;4.57;4.17;;;;;;;13.75;100.00;154891.13;5051982;28;20950;-75
2022/06/08 04:01:47;;;;;;;4.03;3.63;;;;;;;13.79;100.00;154901.53;5071158;28;20465;-74
2022/06/08 04:04:18;;;;;;;2.90;2.60;;;;;;;13.83;100.00;154913.22;5069674;28;20445;-75
2022/06/08 04:06:45;;;;;;;3.30;3.00;;;;;;;13.89;100.00;154927.50;5048251;28;20469;-75
2022/06/08 04:09:13;;;;;;;2.83;2.60;;;;;;;13.92;100.00;154936.59;5051130;28;20488;-75
2022/06/08 04:11:40;;;;;;;3.10;2.70;;;;;;;13.99;100.00;154953.44;5049944;28;20470;-75
2022/06/08 04:14:07;;;;;;;3.57;3.23;;;;;;;14.01;100.00;154958.63;5051356;28;20485;-75
2022/06/08 04:16:35;;;;;;;5.33;3.10;;;;;;;14.09;100.00;154978.09;5037735;28;20871;-75
2022/06/08 04:19:06;;;;;;;3.93;3.13;;;;;;;14.23;100.00;155014.47;5050036;28;20572;-75
2022/06/08 04:21:38;;;;;;;4.33;2.70;;;;;;;14.38;100.00;155054.75;5069496;28;20434;-73
2022/06/08 04:24:10;;;;;;;3.13;2.83;;;;;;;14.62;100.00;155117.09;5063260;28;20451;-76
2022/06/08 04:26:38;;;;;;;2.60;2.40;;;;;;;14.64;100.00;155122.28;5062408;28;20895;-76
2022/06/08 04:29:10;;;;;;;3.30;3.00;;;;;;;14.63;100.00;155119.72;5069513;28;20462;-75
2022/06/08 04:31:40;;;;;;;2.63;2.43;;;;;;;14.62;100.00;155117.09;5049952;28;20465;-75
2022/06/08 04:34:16;;;;;;;4.57;3.00;;;;;;;14.66;100.00;155124.91;5052653;28;20449;-76
2022/06/08 04:36:44;;;;;;;4.63;2.50;;;;;;;14.85;100.00;155175.53;5056129;28;20446;-76
2022/06/08 04:39:13;;;;;;;2.43;2.23;;;;;;;14.90;100.00;155187.28;5057088;28;20437;-76
2022/06/08 04:41:45;;;;;;;4.37;2.70;;;;;;;14.84;100.00;155172.97;5066070;28;20450;-76
2022/06/08 04:44:12;;;;;;;4.40;2.73;;;;;;;14.89;100.00;155185.97;5069492;28;20474;-75
2022/06/08 04:46:40;;;;;;;4.30;2.30;;;;;;;14.81;100.00;155165.19;5070019;28;20752;-76
2022/06/08 04:49:12;;;;;;;2.20;2.00;;;;;;;14.81;100.00;155163.88;5086492;28;20561;-75
2022/06/08 04:51:39;;;;;;;4.87;3.00;;;;;;;14.72;100.00;155140.50;5045453;28;20538;-76
2022/06/08 04:54:07;;;;;;;4.03;3.37;;;;;;;14.77;100.00;155153.50;5072354;28;20516;-76
2022/06/08 04:56:34;;;;;;;6.10;2.70;;;;;;;14.75;100.00;155148.25;5089692;28;20540;-75
2022/06/08 04:59:01;;;;;;;3.30;2.60;;;;;;;14.76;100.00;155150.88;5069347;28;20492;-76
2022/06/08 05:01:32;;;;;;;2.93;2.57;;;;;;;14.83;100.00;155170.34;5073659;28;20496;-74
2022/06/08 05:04:00;;;;;;;3.23;2.30;;;;;;;14.95;100.00;155200.25;5071210;28;20446;-74
2022/06/08 05:06:27;;;;;;;3.80;2.40;;;;;;;15.05;100.00;155226.22;5069936;28;20438;-74
2022/06/08 05:08:54;;;;;;;4.67;3.27;;;;;;;15.07;100.00;155231.41;5071067;28;20556;-73
2022/06/08 05:11:26;;;;;;;3.93;2.97;;;;;;;15.16;100.00;155254.81;5070247;28;20456;-76
2022/06/08 05:13:54;;;;;;;4.67;2.70;;;;;;;15.36;100.00;155306.78;5054016;28;20450;-76
2022/06/08 05:16:21;;;;;;;6.03;2.73;;;;;;;15.49;100.00;155340.63;5035852;28;20496;-76
2022/06/08 05:18:53;;;;;;;4.03;2.60;;;;;;;15.61;100.00;155371.84;5056715;28;20442;-76
2022/06/08 05:21:21;;;;;;;4.70;2.83;;;;;;;15.75;100.00;155408.22;5072064;28;20437;-76
2022/06/08 05:23:50;;;;;;;5.90;2.73;;;;;;;15.99;100.00;155468.06;5063470;28;20928;-76
2022/06/08 05:26:28;;;;;;;6.03;2.63;;;;;;;16.14;99.40;155507.06;5059959;28;20446;-76
2022/06/08 05:28:57;;;;;;;5.80;2.80;;;;;;;16.37;100.00;155566.84;5087254;28;20576;-76
2022/06/08 05:31:24;;;;;;;4.23;2.50;;;;;;;16.68;99.40;155647.53;5064881;28;20450;-76
2022/06/08 05:33:56;;;;;;;3.13;2.33;;;;;;;17.04;98.44;155741.25;5060371;28;20438;-76
2022/06/08 05:36:23;;;;;;;6.70;2.40;;;;;;;17.32;95.30;155811.50;5061336;28;20467;-76
2022/06/08 05:38:53;;;;;;;4.20;2.07;;;;;;;17.19;91.81;155778.97;5047564;28;20482;-76
2022/06/08 05:41:25;;;;;;;5.20;2.83;;;;;;;17.27;91.48;155799.78;5067262;28;20429;-76
2022/06/08 05:43:55;;;;;;;5.23;2.77;;;;;;;17.31;92.66;155808.91;5053294;28;20510;-76
2022/06/08 05:46:22;;;;;;;6.63;2.70;;;;;;;17.29;93.41;155803.72;5069855;28;20427;-76
2022/06/08 05:48:55;;;;;;;3.60;2.80;;;;;;;17.07;92.91;155746.44;5054011;28;20573;-76
2022/06/08 05:51:22;;;;;;;2.53;2.10;;;;;;;16.87;90.64;155695.69;5055479;28;20441;-76
2022/06/08 05:53:49;;;;;;;4.53;2.47;;;;;;;16.80;89.12;155678.78;5055157;28;20478;-76
2022/06/08 05:56:15;;;;;;;3.40;2.63;;;;;;;16.83;92.27;155686.59;5054764;28;20545;-76
2022/06/08 05:58:45;;;;;;;6.00;4.50;;;;;;;16.80;91.91;155678.78;5086347;28;20465;-76
2022/06/08 06:01:14;;;;;;;4.63;2.03;;;;;;;16.69;91.93;155648.84;5073226;28;20454;-76
2022/06/08 06:03:42;;;;;;;2.63;1.90;;;;;;;16.74;91.74;155663.16;5053984;28;20453;-76
2022/06/08 06:06:09;;;;;;;3.10;2.70;;;;;;;16.77;93.21;155669.66;5052960;28;20441;-76
2022/06/08 06:08:36;;;;;;;3.03;2.10;;;;;;;16.78;90.28;155672.28;5069976;28;20482;-76
2022/06/08 06:11:09;;;;;;;3.43;2.00;;;;;;;16.84;90.54;155689.19;5071575;28;20983;-75
2022/06/08 06:13:40;;;;;;;2.13;1.90;;;;;;;17.06;91.99;155745.13;5064739;28;20447;-75
2022/06/08 06:16:10;;;;;;;3.03;2.53;;;;;;;17.45;94.24;155845.34;5051108;28;20869;-76
2022/06/08 06:18:39;;;;;;;8.17;2.57;;;;;;;18.04;92.19;155999.03;5058071;28;21002;-76
2022/06/08 06:21:26;;;;;;;4.60;2.47;;;;;;;18.34;89.28;156074.56;5070743;28;20470;-76
2022/06/08 06:24:00;;;;;;;4.73;2.10;;;;;;;18.65;90.62;156155.38;5068329;28;20503;-74
2022/06/08 06:26:37;;;;;;;4.77;2.30;;;;;;;18.89;84.54;156217.91;5068731;28;20477;-76
2022/06/08 06:29:22;;;;;;;4.07;2.60;;;;;;;19.22;86.77;156303.88;5067302;28;20544;-76
2022/06/08 06:32:17;;;;;;;4.20;2.70;;;;;;;19.33;84.83;156331.25;5071684;28;20456;-76
2022/06/08 06:34:49;;;;;;;3.30;2.57;;;;;;;19.34;84.46;156335.19;5069295;28;20530;-76
2022/06/08 06:37:16;;;;;;;2.87;1.80;;;;;;;19.17;82.27;156290.88;5066597;28;20515;-76
2022/06/08 06:39:43;;;;;;;4.10;2.33;;;;;;;19.10;79.27;156272.63;5040559;28;20456;-76
2022/06/08 06:42:42;;;;;;;2.60;1.93;;;;;;;18.85;82.65;156208.78;5093088;28;20965;-76
2022/06/08 06:45:28;;;;;;;2.23;1.83;;;;;;;19.02;80.00;156251.78;5101796;28;20438;-76
2022/06/08 06:48:01;;;;;;;3.03;2.07;;;;;;;19.00;79.57;156245.28;5034355;28;20475;-76
2022/06/08 06:50:32;;;;;;;5.87;2.20;;;;;;;18.99;77.39;156242.66;5033824;28;20448;-76
2022/06/08 06:53:00;;;;;;;2.90;1.90;;;;;;;18.88;80.51;156215.28;5043663;28;20477;-76
2022/06/08 06:55:31;;;;;;;3.90;2.00;;;;;;;18.93;80.69;156227.03;5080725;28;20862;-76
2022/06/08 06:58:02;;;;;;;2.30;1.90;;;;;;;18.95;79.88;156232.25;5068324;28;21073;-76
2022/06/08 07:00:33;;;;;;;2.03;1.83;;;;;;;18.96;79.12;156236.13;5049916;28;20852;-76
2022/06/08 07:03:04;;;;;;;3.60;1.80;;;;;;;18.68;80.51;156163.19;5066979;28;20454;-76
2022/06/08 07:05:34;;;;;;;3.13;2.07;;;;;;;18.71;79.29;156172.31;5062152;28;20450;-76
2022/06/08 07:08:03;;;;;;;2.30;2.07;;;;;;;18.82;76.83;156199.69;5039902;28;20482;-76
2022/06/08 07:10:30;;;;;;;4.50;2.60;;;;;;;18.78;75.56;156190.53;5040438;28;20478;-76
2022/06/08 07:12:57;;;;;;;3.40;1.90;;;;;;;18.85;76.49;156207.47;5036001;28;20466;-75
2022/06/08 07:15:24;;;;;;;2.90;2.03;;;;;;;18.83;76.29;156203.56;5051349;28;21045;-76
2022/06/08 07:17:52;;;;;;;2.63;2.13;;;;;;;18.77;74.37;156186.66;5049972;28;20447;-76
2022/06/08 07:20:21;;;;;;;2.50;1.70;;;;;;;18.67;75.19;156160.56;5067025;28;20445;-75
2022/06/08 07:22:50;;;;;;;2.83;1.90;;;;;;;18.60;77.16;156143.66;5051505;28;20464;-76
2022/06/08 07:25:18;;;;;;;2.23;1.70;;;;;;;18.59;75.67;156139.72;5064791;28;20796;-76
2022/06/08 07:27:46;;;;;;;2.43;1.80;;;;;;;18.81;74.41;156197.06;5065421;28;20454;-76
2022/06/08 07:30:14;;;;;;;4.70;1.90;;;;;;;18.65;74.91;156156.66;5080421;28;20473;-76
2022/06/08 07:32:41;;;;;;;2.43;1.90;;;;;;;18.71;73.73;156171.00;5050915;28;20435;-76
2022/06/08 07:35:09;;;;;;;3.57;2.33;;;;;;;18.63;74.71;156150.16;5064634;28;20542;-76
2022/06/08 07:37:36;;;;;;;3.83;2.10;;;;;;;18.64;75.38;156152.75;5063684;28;20442;-80
2022/06/08 07:40:05;;;;;;;2.33;1.83;;;;;;;19.10;74.19;156272.63;5067841;28;20450;-81
2022/06/08 07:42:32;;;;;;;2.33;2.10;;;;;;;19.41;74.36;156353.47;5101498;28;20462;-81
2022/06/08 07:44:59;;;;;;;3.47;2.40;;;;;;;19.64;76.66;156412.16;5067888;28;20576;-81
2022/06/08 07:47:26;;;;;;;2.20;1.70;;;;;;;20.05;73.31;156517.75;5095815;28;20958;-80
2022/06/08 07:49:52;;;;;;;5.83;1.87;;;;;;;20.54;71.38;156645.59;5049523;28;20458;-80
2022/06/08 07:52:21;;;;;;;2.00;1.70;;;;;;;20.94;66.28;156748.69;5048132;28;20812;-80
2022/06/08 07:54:48;;;;;;;3.80;2.07;;;;;;;20.97;68.70;156755.25;5056891;28;20197;-80
2022/06/08 07:57:20;;;;;;;3.57;1.67;;;;;;;20.88;67.76;156733.06;5064693;28;20466;-80
2022/06/08 07:59:48;;;;;;;3.53;2.10;;;;;;;20.77;67.27;156703.03;5065331;28;20471;-80
2022/06/08 08:02:15;;;;;;;2.90;1.70;;;;;;;20.90;68.58;156736.94;5063113;28;20524;-80
2022/06/08 08:04:42;;;;;;;3.10;1.73;;;;;;;21.03;66.69;156770.88;5101253;28;20459;-80
2022/06/08 08:07:10;;;;;;;2.37;1.70;;;;;;;21.52;68.12;156898.84;5081483;28;20459;-81
2022/06/08 08:09:37;;;;;;;5.73;2.33;;;;;;;22.03;66.68;157029.47;5102654;28;20477;-81
2022/06/08 08:12:05;;;;;;;3.47;2.00;;;;;;;22.31;66.91;157102.59;5106768;28;20449;-81
2022/06/08 08:14:33;;;;;;;2.10;1.90;;;;;;;22.62;61.56;157182.25;5057157;28;20430;-81
2022/06/08 08:17:00;;;;;;;5.40;2.30;;;;;;;22.81;62.69;157233.25;5072104;28;20461;-81
2022/06/08 08:19:33;;;;;;;3.03;1.70;;;;;;;22.86;66.09;157246.31;5074737;28;20430;-81
2022/06/08 08:22:00;;;;;;;3.67;1.90;;;;;;;23.18;61.46;157327.34;5107106;27;20457;-82
2022/06/08 08:24:27;;;;;;;2.63;1.80;;;;;;;23.47;61.12;157403.19;5074851;28;20782;-81
2022/06/08 08:26:56;;;;;;;2.17;1.83;;;;;;;23.62;58.67;157443.69;5087658;28;20473;-82
2022/06/08 08:29:33;;;;;;;2.20;1.43;;;;;;;23.85;58.67;157501.25;5070835;28;20474;-81
2022/06/08 08:32:00;;;;;;;2.93;1.77;;;;;;;24.23;56.86;157601.97;5068984;28;20445;-82
2022/06/08 08:34:26;;;;;;;4.00;1.60;;;;;;;24.19;53.65;157591.53;5105032;28;20450;-82
2022/06/08 08:36:53;;;;;;;2.40;1.50;;;;;;;24.61;53.38;157698.75;5069333;28;20849;-82
2022/06/08 08:39:20;;;;;;;2.57;1.60;;;;;;;24.48;53.79;157666.06;5068498;28;20481;-82
2022/06/08 08:44:35;;;;;;;2.30;1.87;;;;;;;24.72;54.74;157727.53;5073184;28;20419;-82
2022/06/08 08:47:13;;;;;;;4.90;1.77;;;;;;;24.96;56.30;157790.41;5086186;28;20699;-83
2022/06/08 08:49:47;;;;;;;1.87;1.70;;;;;;;25.18;52.59;157847.94;5064761;28;20547;-82
2022/06/08 08:52:31;;;;;;;4.37;1.97;;;;;;;25.26;48.91;157867.56;5106275;28;20508;-82
2022/06/08 08:55:04;;;;;;;2.10;1.87;;;;;;;25.12;49.16;157832.28;5053817;28;20462;-82
2022/06/08 08:57:35;;;;;;;4.17;1.60;;;;;;;24.88;49.55;157769.47;5085956;28;20479;-82
2022/06/08 09:00:15;;;;;;;4.40;1.93;;;;;;;24.96;50.25;157789.09;5089645;28;20414;-82
2022/06/08 09:05:28;;;;;;;3.30;1.80;;;;;;;25.05;50.29;157813.91;5066316;28;20494;-81
2022/06/08 09:07:56;;;;;;;2.93;1.90;;;;;;;24.97;49.25;157791.66;5072365;28;20448;-82
2022/06/08 09:10:26;;;;;;;4.83;1.70;;;;;;;24.92;49.55;157779.91;5072814;28;20511;-82
2022/06/08 09:12:54;;;;;;;2.10;1.83;;;;;;;24.65;51.69;157709.19;5065802;28;20545;-82
2022/06/08 09:15:44;;;;;;;4.20;2.20;;;;;;;24.91;49.73;157776.00;5057013;28;20533;-81
2022/06/08 09:18:22;;;;;;;2.50;1.77;;;;;;;24.67;51.17;157714.47;5079106;28;20867;-81
2022/06/08 09:20:49;;;;;;;2.43;2.03;;;;;;;24.59;51.37;157693.53;5089190;28;20847;-82
2022/06/08 09:23:27;;;;;;;3.97;1.90;;;;;;;24.50;50.06;157671.28;5071980;28;20523;-82
2022/06/08 09:26:07;;;;;;;3.37;2.17;;;;;;;24.26;52.69;157607.19;5073564;28;20805;-81
2022/06/08 09:28:35;;;;;;;3.47;2.03;;;;;;;24.60;52.42;157696.13;5068693;28;20798;-82
2022/06/08 09:31:03;;;;;;;2.33;2.00;;;;;;;24.54;52.07;157681.72;5093149;28;20454;-81
2022/06/08 09:33:34;;;;;;;4.03;1.80;;;;;;;24.52;49.95;157675.19;5068676;28;20537;-81
2022/06/08 09:36:05;;;;;;;4.43;2.13;;;;;;;24.52;50.38;157675.19;5055292;28;20434;-76
2022/06/08 09:38:36;;;;;;;2.30;2.07;;;;;;;24.56;51.51;157685.69;5071281;28;20545;-76
2022/06/08 09:41:10;;;;;;;2.60;1.60;;;;;;;24.54;52.23;157681.72;5053271;28;20458;-76
2022/06/08 09:43:48;;;;;;;2.23;1.80;;;;;;;24.74;50.16;157732.75;5103343;28;20484;-76
2022/06/08 09:46:21;;;;;;;2.10;1.90;;;;;;;25.11;49.72;157829.63;5082910;28;20443;-76
2022/06/08 09:51:56;;;;;;;2.43;1.30;;;;;;;24.88;52.16;157769.47;5090820;28;20438;-76
2022/06/08 09:54:32;;;;;;;2.53;1.53;;;;;;;25.11;46.03;157828.31;5064686;28;20875;-76
2022/06/08 09:57:13;;;;;;;2.97;1.47;;;;;;;25.34;44.81;157889.81;5051773;28;20541;-76
2022/06/08 10:00:03;;;;;;;2.50;1.30;;;;;;;25.01;46.72;157802.16;5067526;28;20453;-76
2022/06/08 10:02:39;;;;;;;2.20;1.40;;;;;;;25.27;42.41;157871.53;5060277;28;20453;-76
2022/06/08 10:05:15;;;;;;;2.07;1.57;;;;;;;24.42;44.27;157649.03;5071441;28;20438;-76
2022/06/08 10:07:46;;;;;;;4.07;1.23;;;;;;;23.62;49.71;157442.38;5070867;28;20450;-76
2022/06/08 10:10:30;;;;;;;4.07;1.30;;;;;;;23.72;49.33;157468.56;5072248;28;20806;-76
2022/06/08 10:13:00;;;;;;;2.67;1.37;;;;;;;23.73;50.02;157471.16;5071861;28;20445;-76
2022/06/08 10:15:31;;;;;;;2.13;1.53;;;;;;;23.78;46.34;157484.22;5087064;28;20535;-76
2022/06/08 10:18:05;;;;;;;1.80;1.50;;;;;;;23.85;45.84;157502.56;5061035;28;20552;-76
2022/06/08 10:20:37;;;;;;;1.50;1.13;;;;;;;23.90;53.11;157514.31;5065722;28;20457;-76
2022/06/08 10:23:12;;;;;;;1.43;1.13;;;;;;;23.86;47.76;157505.16;5070616;28;20481;-76
2022/06/08 10:25:42;;;;;;;1.50;1.13;;;;;;;23.77;46.37;157480.31;5070394;28;20874;-76
2022/06/08 10:28:14;;;;;;;1.87;1.40;;;;;;;23.60;45.26;157437.16;5072426;28;20450;-76
2022/06/08 10:30:44;;;;;;;1.63;1.27;;;;;;;23.57;45.93;157429.31;5070492;28;20545;-76
2022/06/08 10:33:17;;;;;;;1.30;1.10;;;;;;;23.73;46.41;157469.84;5085392;28;20797;-76
2022/06/08 10:35:48;;;;;;;1.73;1.57;;;;;;;23.81;46.19;157492.06;5052818;28;20940;-75
2022/06/08 10:38:20;;;;;;;1.90;1.20;;;;;;;23.64;45.14;157447.66;5058535;28;20497;-76
2022/06/08 10:40:51;;;;;;;5.03;1.90;;;;;;;23.04;45.67;157293.34;5055021;28;20446;-75
2022/06/08 10:43:21;;;;;;;1.70;1.53;;;;;;;22.82;46.99;157235.84;5064385;28;20944;-75
2022/06/08 10:45:54;;;;;;;1.30;1.20;;;;;;;23.37;47.52;157377.06;5060228;28;20467;-76
2022/06/08 10:48:35;;;;;;;3.43;1.60;;;;;;;23.91;45.12;157518.22;5099638;28;20446;-76
2022/06/08 10:51:41;;;;;;;1.50;1.23;;;;;;;23.88;45.42;157510.38;5102671;28;20468;-76
2022/06/08 10:57:49;;;;;;;3.50;1.23;;;;;;;24.18;46.74;157588.91;5095927;28;20449;-76
2022/06/08 11:00:58;;;;;;;2.17;1.17;;;;;;;24.26;44.24;157608.50;5047343;28;20446;-76
2022/06/08 11:03:56;;;;;;;4.00;1.30;;;;;;;24.21;44.24;157596.75;5052852;28;20462;-76
2022/06/08 11:06:58;;;;;;;1.07;0.90;;;;;;;24.05;42.85;157554.84;5062217;28;20450;-76
2022/06/08 11:09:54;;;;;;;2.30;1.20;;;;;;;24.11;45.02;157570.59;5042562;28;20493;-76
2022/06/08 11:12:30;;;;;;;1.83;1.10;;;;;;;24.18;42.68;157587.56;5083739;28;20450;-76
2022/06/08 11:14:59;;;;;;;1.47;1.13;;;;;;;24.19;42.85;157590.22;5062186;28;20458;-76
2022/06/08 11:17:32;;;;;;;1.30;1.10;;;;;;;24.04;40.62;157552.22;5099813;28;20455;-80
2022/06/08 11:20:04;;;;;;;3.03;1.40;;;;;;;24.03;40.35;157549.63;5050955;28;20443;-80
2022/06/08 11:22:36;;;;;;;1.63;1.40;;;;;;;24.01;43.29;157543.09;5095652;28;20507;-80
2022/06/08 11:25:07;;;;;;;1.53;1.03;;;;;;;24.02;43.55;157547.00;5062473;28;20446;-80
2022/06/08 11:27:35;;;;;;;2.30;1.30;;;;;;;24.09;44.43;157565.34;5061094;28;20454;-80
2022/06/08 11:30:06;;;;;;;2.17;1.40;;;;;;;24.15;43.07;157579.72;5070380;28;20458;-80
2022/06/08 11:32:43;;;;;;;1.33;1.10;;;;;;;23.84;40.67;157498.63;5056944;28;20453;-80
2022/06/08 11:35:30;;;;;;;2.63;1.30;;;;;;;23.96;43.62;157531.28;5069149;28;20441;-80
2022/06/08 11:38:06;;;;;;;3.73;1.27;;;;;;;24.01;43.83;157544.34;5103521;28;20801;-81
2022/06/08 11:40:36;;;;;;;1.30;1.20;;;;;;;24.20;41.69;157594.09;5085809;28;20452;-81
2022/06/08 11:43:25;;;;;;;2.63;1.20;;;;;;;23.87;41.14;157507.78;5066999;28;20545;-76
2022/06/08 11:45:54;;;;;;;13.27;1.90;;;;;;;23.87;41.24;157507.78;5059505;28;20439;-76
2022/06/08 11:48:22;;;;;;;2.70;1.37;;;;;;;23.63;42.23;157445.03;5066434;28;20532;-75
2022/06/08 11:50:52;;;;;;;2.17;1.17;;;;;;;23.74;42.90;157473.78;5058630;28;21045;-76
2022/06/08 11:53:25;;;;;;;4.40;1.33;;;;;;;24.12;45.98;157571.88;5081170;28;20505;-75
2022/06/08 11:56:00;;;;;;;2.53;1.40;;;;;;;24.04;40.59;157552.22;5066117;28;20487;-76
2022/06/08 11:58:28;;;;;;;2.73;1.20;;;;;;;24.18;39.41;157588.91;5066017;28;20545;-76